createdAt,value
2017-12-28T00:01:53.531Z,64.16
2017-12-28T00:04:19.809Z,64.18
2017-12-28T00:06:46.845Z,64.12
2017-12-28T00:09:13.875Z,64.19
2017-12-28T00:11:40.151Z,64.30
2017-12-28T00:14:06.583Z,64.12
2017-12-28T00:16:32.885Z,63.38
2017-12-28T00:18:59.964Z,64.24
2017-12-28T00:21:26.287Z,64.64
2017-12-28T00:23:53.358Z,64.92
2017-12-28T00:26:19.614Z,65.07
2017-12-28T00:28:45.914Z,65.06
2017-12-28T00:31:12.236Z,65.24
2017-12-28T00:33:38.550Z,65.52
2017-12-28T00:36:05.598Z,64.91
2017-12-28T00:38:32.627Z,65.15
2017-12-28T00:40:58.915Z,65.71
2017-12-28T00:43:25.192Z,66.49
2017-12-28T00:45:51.539Z,66.92
2017-12-28T00:48:17.850Z,67.42
2017-12-28T00:50:44.118Z,67.83
2017-12-28T00:53:10.443Z,68.08
2017-12-28T00:55:36.736Z,68.46
2017-12-28T00:58:03.049Z,68.30
2017-12-28T01:00:30.047Z,68.50
2017-12-28T01:02:56.357Z,68.21
2017-12-28T01:05:23.439Z,68.39
2017-12-28T01:07:49.716Z,68.74
2017-12-28T01:10:16.159Z,69.22
2017-12-28T01:12:42.485Z,69.19
2017-12-28T01:15:08.838Z,69.19
2017-12-28T01:17:35.854Z,69.00
2017-12-28T01:20:02.202Z,68.60
2017-12-28T01:22:28.495Z,68.42
2017-12-28T01:24:54.780Z,68.63
2017-12-28T01:27:21.074Z,68.64
2017-12-28T01:29:47.393Z,67.75
2017-12-28T01:32:13.748Z,68.24
2017-12-28T01:34:40.054Z,69.15
2017-12-28T01:37:06.332Z,69.31
2017-12-28T01:39:33.474Z,69.92
2017-12-28T01:42:00.765Z,69.99
2017-12-28T01:44:27.052Z,69.93
2017-12-28T01:46:54.061Z,70.21
2017-12-28T01:49:20.341Z,71.33
2017-12-28T01:51:47.383Z,72.27
2017-12-28T01:54:14.415Z,73.37
2017-12-28T01:56:40.720Z,73.85
2017-12-28T01:59:06.983Z,73.62
2017-12-28T02:01:33.249Z,72.42
2017-12-28T02:03:59.542Z,71.90
2017-12-28T02:06:26.569Z,72.32
2017-12-28T02:08:52.876Z,72.31
2017-12-28T02:11:19.143Z,71.71
2017-12-28T02:13:45.471Z,71.96
2017-12-28T02:16:11.724Z,72.31
2017-12-28T02:18:38.753Z,72.51
2017-12-28T02:21:05.012Z,72.38
2017-12-28T02:23:32.044Z,72.64
2017-12-28T02:25:59.070Z,72.49
2017-12-28T02:28:25.314Z,71.94
2017-12-28T02:30:51.612Z,71.52
2017-12-28T02:33:17.903Z,71.47
2017-12-28T02:35:44.160Z,71.29
2017-12-28T02:38:10.466Z,71.69
2017-12-28T02:40:36.752Z,71.59
2017-12-28T02:43:03.094Z,70.60
2017-12-28T02:45:29.319Z,70.46
2017-12-28T02:47:55.643Z,71.08
2017-12-28T02:50:21.939Z,71.43
2017-12-28T02:52:48.195Z,71.74
2017-12-28T02:55:14.537Z,71.78
2017-12-28T02:57:40.819Z,71.58
2017-12-28T03:00:07.075Z,71.65
2017-12-28T03:02:33.389Z,71.98
2017-12-28T03:04:59.743Z,70.58
2017-12-28T03:07:26.027Z,70.37
2017-12-28T03:09:52.265Z,70.80
2017-12-28T03:12:18.539Z,71.32
2017-12-28T03:14:44.827Z,70.92
2017-12-28T03:17:11.056Z,71.00
2017-12-28T03:19:37.387Z,71.50
2017-12-28T03:22:03.645Z,71.37
2017-12-28T03:24:29.951Z,71.33
2017-12-28T03:26:56.348Z,71.01
2017-12-28T03:29:23.366Z,71.24
2017-12-28T03:31:49.694Z,71.46
2017-12-28T03:34:15.973Z,72.99
2017-12-28T03:36:42.266Z,73.57
2017-12-28T03:39:08.586Z,73.95
2017-12-28T03:41:34.830Z,74.20
2017-12-28T03:44:01.152Z,74.44
2017-12-28T03:46:27.458Z,74.79
2017-12-28T03:48:53.960Z,74.86
2017-12-28T03:51:20.256Z,74.53
2017-12-28T03:53:46.506Z,75.00
2017-12-28T03:56:13.557Z,75.16
2017-12-28T03:58:40.573Z,75.10
2017-12-28T04:01:06.835Z,75.01
2017-12-28T04:03:33.835Z,75.19
2017-12-28T04:06:00.099Z,75.63
2017-12-28T04:08:27.081Z,75.58
2017-12-28T04:10:53.349Z,75.37
2017-12-28T04:13:19.611Z,74.84
2017-12-28T04:15:46.593Z,75.02
2017-12-28T04:18:12.882Z,74.94
2017-12-28T04:20:39.134Z,74.52
2017-12-28T04:23:06.155Z,74.43
2017-12-28T04:25:33.184Z,74.14
2017-12-28T04:27:59.441Z,74.28
2017-12-28T04:30:26.472Z,74.21
2017-12-28T04:32:52.738Z,73.85
2017-12-28T04:35:19.760Z,73.61
2017-12-28T04:37:45.994Z,73.81
2017-12-28T04:40:13.040Z,74.22
2017-12-28T04:42:40.122Z,74.21
2017-12-28T04:45:06.451Z,73.66
2017-12-28T04:47:32.670Z,73.41
2017-12-28T04:49:58.966Z,74.44
2017-12-28T04:52:25.253Z,74.63
2017-12-28T04:54:51.612Z,74.19
2017-12-28T04:57:17.881Z,74.44
2017-12-28T04:59:44.873Z,74.37
2017-12-28T05:02:11.175Z,73.99
2017-12-28T05:04:37.474Z,74.12
2017-12-28T05:07:04.521Z,74.70
2017-12-28T05:09:30.771Z,73.69
2017-12-28T05:11:57.823Z,73.48
2017-12-28T05:14:24.138Z,73.63
2017-12-28T05:16:51.203Z,73.57
2017-12-28T05:19:17.447Z,73.42
2017-12-28T05:21:43.905Z,73.21
2017-12-28T05:24:10.184Z,72.95
2017-12-28T05:26:37.187Z,72.62
2017-12-28T05:29:03.529Z,72.50
2017-12-28T05:31:29.816Z,72.34
2017-12-28T05:33:56.252Z,72.45
2017-12-28T05:36:22.532Z,72.89
2017-12-28T05:38:48.829Z,73.31
2017-12-28T05:41:15.146Z,72.89
2017-12-28T05:43:41.438Z,72.89
2017-12-28T05:46:07.750Z,73.03
2017-12-28T05:48:34.132Z,73.10
2017-12-28T05:51:00.401Z,73.23
2017-12-28T05:53:26.659Z,73.41
2017-12-28T05:55:53.749Z,73.35
2017-12-28T05:58:20.038Z,72.92
2017-12-28T06:00:47.101Z,72.47
2017-12-28T06:03:14.134Z,72.46
2017-12-28T06:05:41.203Z,72.40
2017-12-28T06:08:08.247Z,72.80
2017-12-28T06:10:35.332Z,73.16
2017-12-28T06:13:01.592Z,73.50
2017-12-28T06:15:27.947Z,74.48
2017-12-28T06:17:55.022Z,74.83
2017-12-28T06:20:21.328Z,75.95
2017-12-28T06:22:48.344Z,76.42
2017-12-28T06:25:14.680Z,76.69
2017-12-28T06:27:40.942Z,76.32
2017-12-28T06:30:07.994Z,75.05
2017-12-28T06:32:35.000Z,75.04
2017-12-28T06:35:01.289Z,74.97
2017-12-28T06:37:27.637Z,75.61
2017-12-28T06:39:53.943Z,75.41
2017-12-28T06:42:20.174Z,75.75
2017-12-28T06:44:46.457Z,76.28
2017-12-28T06:47:12.737Z,76.41
2017-12-28T06:49:39.041Z,76.63
2017-12-28T06:52:05.347Z,76.34
2017-12-28T06:54:31.633Z,76.58
2017-12-28T06:56:57.931Z,76.44
2017-12-28T06:59:24.967Z,76.48
2017-12-28T07:01:51.235Z,75.95
2017-12-28T07:04:17.565Z,75.64
2017-12-28T07:06:43.811Z,75.40
2017-12-28T07:09:10.088Z,75.69
2017-12-28T07:11:37.133Z,75.56
2017-12-28T07:14:03.410Z,74.70
2017-12-28T07:16:29.648Z,76.03
2017-12-28T07:18:55.928Z,76.11
2017-12-28T07:21:22.200Z,76.14
2017-12-28T07:23:51.881Z,75.62
2017-12-28T07:26:18.181Z,75.32
2017-12-28T07:28:44.443Z,75.75
2017-12-28T07:31:17.306Z,75.62
2017-12-28T07:33:43.732Z,75.88
2017-12-28T07:36:09.971Z,75.76
2017-12-28T07:38:36.224Z,76.33
2017-12-28T07:41:03.300Z,75.91
2017-12-28T07:43:29.634Z,75.58
2017-12-28T07:45:56.056Z,75.54
2017-12-28T07:48:22.323Z,76.11
2017-12-28T07:50:48.620Z,75.73
2017-12-28T07:53:14.922Z,76.23
2017-12-28T07:55:41.924Z,76.17
2017-12-28T07:58:08.196Z,75.52
2017-12-28T08:00:35.208Z,75.51
2017-12-28T08:03:01.509Z,75.27
2017-12-28T08:05:34.777Z,75.66
2017-12-28T08:08:01.796Z,75.33
2017-12-28T08:10:28.072Z,74.99
2017-12-28T08:12:54.338Z,74.41
2017-12-28T08:15:20.600Z,74.37
2017-12-28T08:17:47.631Z,75.74
2017-12-28T08:20:13.879Z,74.78
2017-12-28T08:22:40.918Z,74.78
2017-12-28T08:25:07.195Z,75.13
2017-12-28T08:27:33.472Z,76.02
2017-12-28T08:29:59.708Z,75.50
2017-12-28T08:32:26.011Z,75.72
2017-12-28T08:34:52.315Z,75.67
2017-12-28T08:37:18.606Z,77.41
2017-12-28T08:39:45.738Z,76.96
2017-12-28T08:42:12.050Z,75.96
2017-12-28T08:44:38.339Z,75.86
2017-12-28T08:47:04.649Z,76.08
2017-12-28T08:49:38.744Z,77.05
2017-12-28T08:52:05.099Z,77.90
2017-12-28T08:54:32.205Z,77.51
2017-12-28T08:56:58.510Z,77.51
2017-12-28T08:59:24.818Z,76.93
2017-12-28T09:01:51.067Z,76.50
2017-12-28T09:04:17.381Z,76.84
2017-12-28T09:06:43.675Z,76.20
2017-12-28T09:09:09.917Z,76.63
2017-12-28T09:11:36.252Z,76.70
2017-12-28T09:14:03.322Z,76.42
2017-12-28T09:16:29.633Z,76.56
2017-12-28T09:18:56.681Z,76.45
2017-12-28T09:21:23.705Z,76.76
2017-12-28T09:23:49.996Z,76.82
2017-12-28T09:26:18.607Z,77.38
2017-12-28T09:28:45.668Z,77.80
2017-12-28T09:31:11.900Z,77.15
2017-12-28T09:33:38.192Z,77.79
2017-12-28T09:36:04.479Z,80.03
2017-12-28T09:38:31.450Z,79.98
2017-12-28T09:40:57.770Z,78.89
2017-12-28T09:43:24.804Z,80.20
2017-12-28T09:45:51.851Z,80.85
2017-12-28T09:48:18.851Z,80.13
2017-12-28T09:50:45.221Z,80.35
2017-12-28T09:53:11.532Z,79.68
2017-12-28T09:55:44.686Z,80.96
2017-12-28T09:58:10.944Z,81.31
2017-12-28T10:00:37.253Z,81.43
2017-12-28T10:03:03.562Z,80.97
2017-12-28T10:05:30.568Z,80.69
2017-12-28T10:07:56.904Z,80.24
2017-12-28T10:10:23.187Z,80.58
2017-12-28T10:12:49.516Z,80.68
2017-12-28T10:15:15.829Z,80.85
2017-12-28T10:17:42.934Z,80.45
2017-12-28T10:20:09.268Z,79.93
2017-12-28T10:22:35.559Z,80.72
2017-12-28T10:25:01.825Z,80.01
2017-12-28T10:27:28.149Z,79.87
2017-12-28T10:29:54.461Z,79.03
2017-12-28T10:32:20.791Z,78.97
2017-12-28T10:34:47.123Z,79.81
2017-12-28T10:37:13.401Z,79.93
2017-12-28T10:39:39.707Z,79.41
2017-12-28T10:42:05.989Z,79.57
2017-12-28T10:44:32.288Z,78.40
2017-12-28T10:46:58.600Z,78.65
2017-12-28T10:49:25.086Z,78.83
2017-12-28T10:51:51.361Z,79.47
2017-12-28T10:54:17.675Z,79.10
2017-12-28T10:56:43.935Z,78.31
2017-12-28T10:59:11.110Z,77.88
2017-12-28T11:01:38.124Z,78.38
2017-12-28T11:04:04.408Z,79.21
2017-12-28T11:06:30.646Z,78.08
2017-12-28T11:08:56.882Z,78.38
2017-12-28T11:11:23.170Z,77.45
2017-12-28T11:13:49.484Z,77.51
2017-12-28T11:16:15.784Z,76.02
2017-12-28T11:18:42.043Z,75.73
2017-12-28T11:21:08.345Z,76.58
2017-12-28T11:23:34.605Z,77.39
2017-12-28T11:26:00.896Z,76.62
2017-12-28T11:28:27.138Z,76.17
2017-12-28T11:30:53.391Z,74.76
2017-12-28T11:33:19.691Z,73.62
2017-12-28T11:35:45.983Z,75.46
2017-12-28T11:38:12.991Z,75.03
2017-12-28T11:40:39.283Z,75.77
2017-12-28T11:43:05.585Z,75.35
2017-12-28T11:45:32.603Z,74.53
2017-12-28T11:47:58.891Z,73.95
2017-12-28T11:50:31.401Z,74.98
2017-12-28T11:53:03.857Z,73.50
2017-12-28T11:55:30.967Z,73.60
2017-12-28T11:57:58.011Z,72.71
2017-12-28T12:00:26.897Z,72.88
2017-12-28T12:03:00.193Z,73.74
2017-12-28T12:05:27.303Z,74.10
2017-12-28T12:07:53.593Z,73.21
2017-12-28T12:10:21.771Z,72.18
2017-12-28T12:12:48.070Z,71.20
2017-12-28T12:15:14.395Z,71.04
2017-12-28T12:17:40.680Z,69.92
2017-12-28T12:20:06.964Z,71.19
2017-12-28T12:22:33.227Z,69.91
2017-12-28T12:24:59.550Z,69.37
2017-12-28T12:27:25.818Z,69.59
2017-12-28T12:29:52.130Z,68.99
2017-12-28T12:32:18.387Z,71.19
2017-12-28T12:34:44.676Z,70.29
2017-12-28T12:37:10.992Z,70.23
2017-12-28T12:39:37.966Z,69.23
2017-12-28T12:42:04.278Z,69.07
2017-12-28T12:44:30.550Z,69.35
2017-12-28T12:46:56.798Z,70.13
2017-12-28T12:49:23.097Z,70.69
2017-12-28T12:51:49.382Z,70.73
2017-12-28T12:54:17.347Z,70.41
2017-12-28T12:56:44.351Z,70.63
2017-12-28T12:59:10.585Z,68.77
2017-12-28T13:01:36.869Z,70.53
2017-12-28T13:04:03.186Z,70.77
2017-12-28T13:06:30.229Z,70.70
2017-12-28T13:08:57.312Z,69.79
2017-12-28T13:11:24.313Z,69.55
2017-12-28T13:13:50.600Z,69.27
2017-12-28T13:16:16.918Z,69.42
2017-12-28T13:18:43.222Z,69.34
2017-12-28T13:21:10.230Z,68.45
2017-12-28T13:23:36.548Z,69.30
2017-12-28T13:26:02.812Z,70.70
2017-12-28T13:28:29.828Z,70.66
2017-12-28T13:30:56.105Z,69.90
2017-12-28T13:33:23.091Z,70.36
2017-12-28T13:35:49.408Z,69.49
2017-12-28T13:38:15.677Z,69.91
2017-12-28T13:40:41.983Z,69.26
2017-12-28T13:43:08.280Z,69.50
2017-12-28T13:45:35.357Z,68.45
2017-12-28T13:48:01.651Z,67.81
2017-12-28T13:50:28.715Z,67.50
2017-12-28T13:52:55.033Z,68.70
2017-12-28T13:55:22.064Z,68.73
2017-12-28T13:57:48.343Z,68.58
2017-12-28T14:00:14.673Z,68.12
2017-12-28T14:02:40.910Z,68.61
2017-12-28T14:05:07.204Z,68.75
2017-12-28T14:07:35.044Z,69.88
2017-12-28T14:10:01.366Z,70.44
2017-12-28T14:12:27.696Z,71.28
2017-12-28T14:14:54.018Z,72.18
2017-12-28T14:17:20.360Z,72.62
2017-12-28T14:19:46.698Z,72.98
2017-12-28T14:22:12.968Z,73.25
2017-12-28T14:24:40.004Z,73.24
2017-12-28T14:27:07.025Z,73.35
2017-12-28T14:29:33.284Z,72.90
2017-12-28T14:32:00.303Z,73.33
2017-12-28T14:34:26.562Z,73.86
2017-12-28T14:36:53.567Z,74.17
2017-12-28T14:39:19.855Z,73.94
2017-12-28T14:41:46.119Z,74.35
2017-12-28T14:44:12.441Z,74.11
2017-12-28T14:46:38.739Z,74.53
2017-12-28T14:49:05.011Z,74.66
2017-12-28T14:51:31.307Z,73.84
2017-12-28T14:53:57.644Z,74.14
2017-12-28T14:56:23.906Z,74.12
2017-12-28T14:58:50.232Z,73.93
2017-12-28T15:01:16.483Z,73.36
2017-12-28T15:03:42.794Z,73.56
2017-12-28T15:06:09.088Z,73.54
2017-12-28T15:08:35.368Z,73.25
2017-12-28T15:11:01.701Z,73.49
2017-12-28T15:13:28.018Z,73.49
2017-12-28T15:15:54.328Z,72.56
2017-12-28T15:18:20.613Z,72.73
2017-12-28T15:20:47.636Z,72.70
2017-12-28T15:23:13.976Z,73.03
2017-12-28T15:25:40.994Z,72.60
2017-12-28T15:28:07.300Z,73.46
2017-12-28T15:30:33.577Z,73.18
2017-12-28T15:32:59.857Z,72.71
2017-12-28T15:35:26.143Z,72.75
2017-12-28T15:37:52.427Z,72.24
2017-12-28T15:40:18.781Z,71.90
2017-12-28T15:42:45.091Z,71.88
2017-12-28T15:45:11.391Z,71.17
2017-12-28T15:47:38.451Z,71.17
2017-12-28T15:50:04.747Z,70.49
2017-12-28T15:52:31.021Z,70.05
2017-12-28T15:54:57.309Z,69.42
2017-12-28T15:57:23.639Z,70.14
2017-12-28T15:59:49.895Z,70.32
2017-12-28T16:02:16.981Z,70.66
2017-12-28T16:04:43.279Z,70.57
2017-12-28T16:07:10.322Z,70.29
2017-12-28T16:09:37.422Z,69.96
2017-12-28T16:12:03.720Z,69.90
2017-12-28T16:14:30.054Z,69.82
2017-12-28T16:16:56.360Z,69.81
2017-12-28T16:19:23.422Z,70.49
2017-12-28T16:21:49.786Z,71.21
2017-12-28T16:24:16.212Z,71.75
2017-12-28T16:26:42.525Z,71.35
2017-12-28T16:29:08.772Z,71.87
2017-12-28T16:31:35.173Z,71.55
2017-12-28T16:34:02.189Z,71.76
2017-12-28T16:36:28.521Z,71.00
2017-12-28T16:38:55.549Z,71.17
2017-12-28T16:41:21.805Z,71.02
2017-12-28T16:43:48.135Z,70.53
2017-12-28T16:46:14.463Z,70.82
2017-12-28T16:48:41.499Z,70.66
2017-12-28T16:51:07.825Z,71.07
2017-12-28T16:53:34.121Z,71.00
2017-12-28T16:56:00.457Z,70.91
2017-12-28T16:58:26.728Z,71.22
2017-12-28T17:00:53.051Z,71.95
2017-12-28T17:03:19.384Z,72.22
2017-12-28T17:05:45.694Z,73.15
2017-12-28T17:08:11.971Z,73.24
2017-12-28T17:10:39.026Z,73.14
2017-12-28T17:13:06.742Z,73.60
2017-12-28T17:15:33.100Z,73.20
2017-12-28T17:17:59.399Z,73.07
2017-12-28T17:20:25.680Z,72.76
2017-12-28T17:22:52.687Z,71.79
2017-12-28T17:25:19.188Z,71.78
2017-12-28T17:27:45.465Z,71.66
2017-12-28T17:30:11.759Z,71.87
2017-12-28T17:32:38.108Z,71.63
2017-12-28T17:35:04.427Z,71.05
2017-12-28T17:37:30.689Z,70.79
2017-12-28T17:39:56.944Z,70.55
2017-12-28T17:42:23.233Z,70.73
2017-12-28T17:44:49.553Z,70.45
2017-12-28T17:47:15.870Z,70.45
2017-12-28T17:49:42.173Z,70.10
2017-12-28T17:52:09.225Z,70.19
2017-12-28T17:54:35.680Z,69.67
2017-12-28T17:57:01.931Z,69.96
2017-12-28T17:59:28.248Z,69.14
2017-12-28T18:01:54.563Z,68.20
2017-12-28T18:04:20.913Z,68.41
2017-12-28T18:06:47.250Z,68.79
2017-12-28T18:09:13.542Z,68.17
2017-12-28T18:11:40.596Z,67.35
2017-12-28T18:14:06.960Z,67.51
2017-12-28T18:16:33.236Z,67.59
2017-12-28T18:18:59.561Z,67.95
2017-12-28T18:21:26.304Z,67.63
2017-12-28T18:23:53.348Z,66.33
2017-12-28T18:26:19.629Z,65.92
2017-12-28T18:28:45.982Z,66.32
2017-12-28T18:31:12.288Z,65.87
2017-12-28T18:33:38.518Z,66.06
2017-12-28T18:36:04.889Z,65.57
2017-12-28T18:38:31.220Z,65.13
2017-12-28T18:40:57.484Z,64.91
2017-12-28T18:43:24.569Z,64.69
2017-12-28T18:45:50.824Z,64.53
2017-12-28T18:48:17.209Z,64.02
2017-12-28T18:50:43.504Z,64.36
2017-12-28T18:53:10.081Z,64.68
2017-12-28T18:55:36.363Z,65.53
2017-12-28T18:58:02.675Z,65.50
2017-12-28T19:00:29.611Z,65.20
2017-12-28T19:02:55.921Z,65.00
2017-12-28T19:05:22.249Z,65.56
2017-12-28T19:07:48.651Z,65.60
2017-12-28T19:10:14.916Z,65.87
2017-12-28T19:12:41.291Z,66.19
2017-12-28T19:15:07.598Z,66.08
2017-12-28T19:17:33.962Z,66.52
2017-12-28T19:20:00.553Z,65.95
2017-12-28T19:22:26.908Z,66.41
2017-12-28T19:24:53.212Z,66.10
2017-12-28T19:27:19.588Z,65.48
2017-12-28T19:29:45.923Z,65.99
2017-12-28T19:32:12.272Z,65.75
2017-12-28T19:34:39.331Z,65.40
2017-12-28T19:37:06.424Z,65.37
2017-12-28T19:39:32.715Z,65.70
2017-12-28T19:41:59.009Z,65.04
2017-12-28T19:44:25.385Z,65.16
2017-12-28T19:46:51.694Z,64.64
2017-12-28T19:49:18.828Z,64.70
2017-12-28T19:51:45.209Z,65.08
2017-12-28T19:54:11.600Z,65.12
2017-12-28T19:56:38.134Z,64.60
2017-12-28T19:59:04.492Z,64.73
2017-12-28T20:01:30.822Z,64.67
2017-12-28T20:03:57.876Z,64.71
2017-12-28T20:06:33.003Z,64.45
2017-12-28T20:09:00.060Z,64.35
2017-12-28T20:11:26.748Z,64.30
2017-12-28T20:13:53.060Z,65.04
2017-12-28T20:16:19.422Z,64.58
2017-12-28T20:18:46.226Z,64.05
2017-12-28T20:21:12.634Z,64.23
2017-12-28T20:23:40.762Z,63.83
2017-12-28T20:26:07.096Z,63.79
2017-12-28T20:28:33.364Z,64.21
2017-12-28T20:31:00.414Z,64.05
2017-12-28T20:33:26.730Z,63.52
2017-12-28T20:35:53.022Z,63.40
2017-12-28T20:38:19.371Z,62.91
2017-12-28T20:40:45.759Z,63.14
2017-12-28T20:43:12.081Z,63.44
2017-12-28T20:45:38.403Z,63.34
2017-12-28T20:48:05.518Z,63.64
2017-12-28T20:50:31.843Z,63.64
2017-12-28T20:52:58.203Z,63.94
2017-12-28T20:55:25.273Z,63.11
2017-12-28T20:57:51.553Z,63.01
2017-12-28T21:00:17.884Z,63.13
2017-12-28T21:02:44.267Z,63.74
2017-12-28T21:05:10.597Z,63.27
2017-12-28T21:07:36.872Z,63.59
2017-12-28T21:10:03.166Z,63.21
2017-12-28T21:12:29.539Z,63.69
2017-12-28T21:14:55.818Z,63.25
2017-12-28T21:17:22.084Z,62.65
2017-12-28T21:19:48.462Z,63.06
2017-12-28T21:22:15.542Z,63.26
2017-12-28T21:24:41.840Z,63.60
2017-12-28T21:27:08.884Z,63.93
2017-12-28T21:29:35.196Z,64.19
2017-12-28T21:32:01.486Z,64.38
2017-12-28T21:34:27.855Z,64.22
2017-12-28T21:36:54.143Z,64.33
2017-12-28T21:39:20.419Z,65.00
2017-12-28T21:41:46.737Z,65.61
2017-12-28T21:44:13.038Z,65.56
2017-12-28T21:46:39.325Z,65.69
2017-12-28T21:49:05.763Z,65.51
2017-12-28T21:51:32.772Z,65.38
2017-12-28T21:53:59.111Z,66.06
2017-12-28T21:56:25.441Z,65.97
2017-12-28T21:58:51.743Z,66.18
2017-12-28T22:01:17.999Z,66.11
2017-12-28T22:03:44.427Z,66.05
2017-12-28T22:06:10.725Z,66.26
2017-12-28T22:08:37.216Z,66.28
2017-12-28T22:11:03.492Z,66.23
2017-12-28T22:13:29.722Z,66.18
2017-12-28T22:15:56.041Z,65.68
2017-12-28T22:18:23.072Z,65.88
2017-12-28T22:20:50.086Z,65.64
2017-12-28T22:23:16.484Z,65.24
2017-12-28T22:25:42.764Z,65.14
2017-12-28T22:28:09.136Z,65.00
2017-12-28T22:30:35.426Z,65.10
2017-12-28T22:33:01.734Z,64.69
2017-12-28T22:35:28.026Z,64.64
2017-12-28T22:37:54.276Z,64.16
2017-12-28T22:40:20.607Z,63.86
2017-12-28T22:42:46.888Z,63.55
2017-12-28T22:45:13.166Z,64.13
2017-12-28T22:47:39.478Z,63.44
2017-12-28T22:50:05.802Z,63.84
2017-12-28T22:52:32.134Z,63.64
2017-12-28T22:54:58.384Z,63.37
2017-12-28T22:57:24.732Z,63.35
2017-12-28T22:59:51.021Z,62.90
2017-12-28T23:02:18.056Z,63.06
2017-12-28T23:04:45.078Z,62.93
2017-12-28T23:07:12.125Z,62.89
2017-12-28T23:09:38.435Z,62.52
2017-12-28T23:12:04.755Z,62.54
2017-12-28T23:14:31.058Z,62.38
2017-12-28T23:16:57.413Z,62.32
2017-12-28T23:19:23.687Z,62.30
2017-12-28T23:21:50.019Z,62.39
2017-12-28T23:24:16.343Z,62.54
2017-12-28T23:26:42.691Z,62.46
2017-12-28T23:29:08.966Z,62.45
2017-12-28T23:31:35.305Z,62.26
2017-12-28T23:34:01.605Z,62.48
2017-12-28T23:36:28.629Z,62.34
2017-12-28T23:38:54.903Z,62.28
2017-12-28T23:41:21.194Z,62.27
2017-12-28T23:43:48.598Z,61.82
2017-12-28T23:46:14.860Z,61.72
2017-12-28T23:48:41.146Z,61.50
2017-12-28T23:51:07.460Z,61.51
2017-12-28T23:53:34.499Z,61.88
2017-12-28T23:56:01.546Z,61.74
2017-12-28T23:58:28.606Z,61.84
